createdAt,value
2023-04-17T00:00:30.785Z,18.43
2023-04-17T00:02:58.484Z,19.00
2023-04-17T00:05:26.489Z,18.70
2023-04-17T00:07:54.276Z,18.07
2023-04-17T00:10:21.968Z,21.90
2023-04-17T00:12:49.416Z,22.60
2023-04-17T00:15:18.344Z,17.93
2023-04-17T00:17:45.907Z,20.03
2023-04-17T00:20:13.618Z,20.43
2023-04-17T00:22:41.154Z,22.43
2023-04-17T00:25:12.731Z,20.40
2023-04-17T00:27:40.325Z,19.93
2023-04-17T00:30:08.941Z,21.83
2023-04-17T00:32:37.864Z,17.70
2023-04-17T00:35:06.028Z,23.43
2023-04-17T00:37:33.483Z,21.20
2023-04-17T00:40:00.946Z,17.90
2023-04-17T00:42:28.684Z,19.40
2023-04-17T00:44:56.605Z,22.73
2023-04-17T00:47:26.206Z,21.30
2023-04-17T00:49:55.047Z,21.53
2023-04-17T00:52:29.293Z,24.03
2023-04-17T00:54:56.919Z,21.47
2023-04-17T00:57:25.096Z,21.17
2023-04-17T00:59:52.650Z,22.10
2023-04-17T01:02:20.276Z,20.10
2023-04-17T01:04:47.806Z,22.43
2023-04-17T01:07:16.735Z,23.57
2023-04-17T01:09:44.272Z,18.60
2023-04-17T01:12:19.435Z,20.80
2023-04-17T01:14:47.076Z,23.60
2023-04-17T01:17:15.218Z,24.20
2023-04-17T01:19:43.094Z,23.47
2023-04-17T01:22:10.659Z,20.17
2023-04-17T01:24:39.507Z,21.00
2023-04-17T01:27:07.682Z,20.53
2023-04-17T01:29:35.357Z,22.80
2023-04-17T01:32:02.979Z,21.80
2023-04-17T01:34:30.435Z,22.27
2023-04-17T01:36:57.907Z,21.63
2023-04-17T01:39:25.438Z,18.30
2023-04-17T01:41:54.327Z,22.13
2023-04-17T01:44:22.082Z,20.57
2023-04-17T01:46:49.517Z,18.53
2023-04-17T01:49:17.101Z,20.50
2023-04-17T01:51:44.561Z,20.17
2023-04-17T01:54:12.050Z,19.00
2023-04-17T01:56:39.488Z,20.90
2023-04-17T01:59:08.343Z,19.17
2023-04-17T02:01:36.729Z,18.23
2023-04-17T02:04:04.658Z,21.37
2023-04-17T02:06:32.560Z,18.07
2023-04-17T02:09:00.185Z,20.13
2023-04-17T02:11:27.627Z,19.00
2023-04-17T02:13:55.093Z,18.70
2023-04-17T02:16:24.059Z,22.10
2023-04-17T02:18:52.268Z,17.57
2023-04-17T02:21:19.730Z,23.13
2023-04-17T02:23:47.238Z,20.57
2023-04-17T02:26:15.020Z,19.40
2023-04-17T02:28:44.755Z,18.23
2023-04-17T02:31:12.945Z,20.23
2023-04-17T02:33:41.925Z,26.40
2023-04-17T02:36:10.052Z,21.57
2023-04-17T02:38:37.730Z,23.73
2023-04-17T02:41:05.982Z,24.83
2023-04-17T02:43:33.503Z,22.20
2023-04-17T02:46:01.355Z,21.80
2023-04-17T02:48:28.930Z,22.23
2023-04-17T02:50:57.775Z,23.57
2023-04-17T02:53:25.215Z,23.63
2023-04-17T02:55:52.673Z,23.53
2023-04-17T02:58:20.122Z,22.40
2023-04-17T03:00:47.755Z,24.00
2023-04-17T03:03:15.558Z,24.40
2023-04-17T03:05:43.178Z,25.47
2023-04-17T03:08:11.981Z,26.17
2023-04-17T03:10:39.454Z,26.47
2023-04-17T03:13:06.879Z,26.00
2023-04-17T03:15:35.089Z,21.00
2023-04-17T03:18:02.636Z,25.23
2023-04-17T03:20:30.202Z,21.77
2023-04-17T03:22:57.629Z,22.67
2023-04-17T03:25:26.447Z,24.70
2023-04-17T03:27:53.915Z,25.57
2023-04-17T03:30:21.418Z,20.30
2023-04-17T03:32:48.967Z,24.67
2023-04-17T03:35:16.534Z,23.33
2023-04-17T03:37:44.094Z,26.23
2023-04-17T03:40:11.959Z,23.80
2023-04-17T03:42:40.764Z,27.70
2023-04-17T03:45:09.746Z,24.60
2023-04-17T03:47:37.212Z,22.53
2023-04-17T03:50:05.318Z,26.60
2023-04-17T03:52:32.750Z,27.20
2023-04-17T03:55:00.241Z,23.70
2023-04-17T03:57:27.716Z,25.00
2023-04-17T03:59:56.498Z,26.17
2023-04-17T04:02:24.162Z,27.03
2023-04-17T04:04:51.886Z,24.27
2023-04-17T04:07:19.388Z,25.50
2023-04-17T04:09:46.858Z,22.80
2023-04-17T04:12:14.340Z,21.97
2023-04-17T04:14:42.214Z,24.30
2023-04-17T04:17:11.256Z,22.60
2023-04-17T04:19:38.718Z,22.67
2023-04-17T04:22:06.951Z,23.90
2023-04-17T04:24:35.198Z,27.33
2023-04-17T04:27:05.063Z,25.97
2023-04-17T04:29:32.924Z,26.13
2023-04-17T04:32:01.083Z,24.40
2023-04-17T04:38:15.419Z,26.57
2023-04-17T04:40:43.904Z,23.60
2023-04-17T04:43:11.374Z,26.67
2023-04-17T04:45:38.896Z,24.67
2023-04-17T04:48:06.373Z,26.57
2023-04-17T04:50:33.828Z,25.13
2023-04-17T04:53:01.485Z,23.70
2023-04-17T04:55:30.540Z,29.23
2023-04-17T04:57:58.146Z,25.87
2023-04-17T05:00:26.266Z,25.67
2023-04-17T05:02:53.792Z,26.40
2023-04-17T05:05:21.826Z,24.20
2023-04-17T05:07:49.309Z,26.27
2023-04-17T05:10:17.068Z,26.57
2023-04-17T05:12:45.852Z,23.00
2023-04-17T05:15:13.518Z,27.07
2023-04-17T05:17:41.857Z,27.70
2023-04-17T05:20:12.098Z,25.97
2023-04-17T05:22:39.571Z,27.90
2023-04-17T05:25:07.673Z,25.40
2023-04-17T05:27:35.253Z,29.60
2023-04-17T05:30:04.166Z,19.80
2023-04-17T05:32:31.726Z,22.80
2023-04-17T05:34:59.227Z,23.80
2023-04-17T05:37:26.695Z,20.77
2023-04-17T05:39:54.123Z,26.50
2023-04-17T05:42:21.586Z,23.43
2023-04-17T05:44:49.125Z,30.37
2023-04-17T05:47:17.927Z,25.77
2023-04-17T05:49:45.616Z,27.57
2023-04-17T05:52:13.052Z,29.57
2023-04-17T05:54:40.535Z,26.80
2023-04-17T05:57:08.010Z,33.20
2023-04-17T05:59:36.377Z,30.83
2023-04-17T06:02:04.778Z,34.07
2023-04-17T06:04:33.989Z,34.77
2023-04-17T06:07:03.054Z,29.43
2023-04-17T06:09:30.502Z,31.67
2023-04-17T06:11:59.011Z,26.90
2023-04-17T06:14:26.462Z,26.53
2023-04-17T06:16:53.934Z,26.20
2023-04-17T06:19:22.267Z,25.00
2023-04-17T06:21:51.168Z,27.03
2023-04-17T06:24:18.953Z,24.13
2023-04-17T06:26:46.495Z,23.50
2023-04-17T06:29:15.878Z,26.20
2023-04-17T06:31:45.313Z,26.83
2023-04-17T06:34:12.811Z,26.40
2023-04-17T06:36:41.033Z,21.17
2023-04-17T06:39:09.938Z,20.37
2023-04-17T06:41:37.549Z,22.20
2023-04-17T06:44:05.096Z,20.03
2023-04-17T06:46:32.693Z,23.80
2023-04-17T06:49:00.171Z,22.07
2023-04-17T06:51:29.093Z,22.70
2023-04-17T06:53:56.524Z,21.37
2023-04-17T06:56:25.343Z,20.17
2023-04-17T06:58:53.244Z,23.90
2023-04-17T07:01:21.160Z,21.00
2023-04-17T07:03:49.101Z,23.00
2023-04-17T07:06:17.005Z,19.23
2023-04-17T07:08:44.426Z,19.70
2023-04-17T07:11:11.904Z,19.83
2023-04-17T07:13:40.691Z,18.70
2023-04-17T07:16:08.760Z,18.33
2023-04-17T07:18:36.226Z,19.47
2023-04-17T07:21:03.729Z,22.20
2023-04-17T07:23:31.302Z,21.20
2023-04-17T07:25:58.766Z,22.37
2023-04-17T07:28:26.371Z,19.00
2023-04-17T07:30:58.063Z,17.97
2023-04-17T07:33:25.551Z,19.87
2023-04-17T07:35:53.796Z,20.97
2023-04-17T07:38:21.257Z,20.30
2023-04-17T07:40:48.725Z,21.10
2023-04-17T07:43:16.640Z,21.60
2023-04-17T07:45:44.089Z,22.23
2023-04-17T07:48:12.872Z,21.90
2023-04-17T07:50:40.348Z,19.00
2023-04-17T07:53:08.246Z,23.17
2023-04-17T07:55:35.715Z,20.27
2023-04-17T07:58:03.678Z,17.70
2023-04-17T08:00:31.380Z,20.83
2023-04-17T08:02:59.240Z,17.60
2023-04-17T08:05:28.269Z,19.30
2023-04-17T08:07:55.759Z,18.73
2023-04-17T08:10:23.358Z,18.47
2023-04-17T08:12:51.062Z,16.00
2023-04-17T08:15:18.680Z,18.37
2023-04-17T08:17:46.175Z,20.23
2023-04-17T08:20:14.155Z,17.40
2023-04-17T08:22:44.587Z,15.20
2023-04-17T08:25:13.213Z,21.10
2023-04-17T08:27:41.818Z,23.97
2023-04-17T08:30:13.039Z,18.20
2023-04-17T08:32:43.690Z,17.67
2023-04-17T08:35:12.307Z,18.10
2023-04-17T08:37:40.519Z,18.83
2023-04-17T08:40:12.080Z,15.40
2023-04-17T08:42:41.547Z,17.63
2023-04-17T08:45:11.453Z,15.37
2023-04-17T08:47:39.749Z,16.50
2023-04-17T08:50:09.575Z,16.10
2023-04-17T08:52:40.529Z,16.23
2023-04-17T08:55:10.599Z,15.93
2023-04-17T08:57:54.237Z,19.07
2023-04-17T09:00:25.588Z,17.63
2023-04-17T09:02:54.921Z,14.87
2023-04-17T09:05:23.358Z,16.13
2023-04-17T09:07:51.915Z,16.67
2023-04-17T09:10:20.925Z,15.53
2023-04-17T09:13:00.973Z,16.57
2023-04-17T09:15:28.583Z,17.07
2023-04-17T09:17:56.264Z,15.30
2023-04-17T09:20:23.956Z,17.30
2023-04-17T09:22:59.969Z,17.40
2023-04-17T09:25:29.083Z,19.03
2023-04-17T09:28:04.202Z,18.20
2023-04-17T09:30:37.707Z,19.63
2023-04-17T09:33:06.354Z,17.27
2023-04-17T09:35:39.238Z,18.43
2023-04-17T09:38:07.495Z,17.47
2023-04-17T09:40:40.794Z,15.37
2023-04-17T09:43:10.386Z,17.87
2023-04-17T09:45:42.474Z,14.97
2023-04-17T09:48:11.504Z,18.73
2023-04-17T09:50:39.498Z,20.00
2023-04-17T09:53:08.365Z,16.83
2023-04-17T09:55:37.802Z,15.73
2023-04-17T09:58:08.340Z,15.43
2023-04-17T10:00:37.749Z,17.07
2023-04-17T10:03:05.816Z,13.80
2023-04-17T10:05:33.593Z,12.13
2023-04-17T10:08:01.418Z,11.33
2023-04-17T10:10:31.295Z,10.40
2023-04-17T10:13:01.214Z,16.70
2023-04-17T10:15:30.773Z,11.07
2023-04-17T10:18:20.202Z,11.50
2023-04-17T10:20:48.461Z,10.73
2023-04-17T10:23:27.866Z,11.63
2023-04-17T10:26:40.335Z,9.20
2023-04-17T10:29:07.827Z,7.60
2023-04-17T10:32:17.859Z,8.17
2023-04-17T10:34:46.273Z,9.13
2023-04-17T10:37:15.424Z,8.40
2023-04-17T10:39:51.480Z,8.77
2023-04-17T10:42:20.147Z,9.80
2023-04-17T10:44:48.440Z,8.00
2023-04-17T10:47:20.889Z,7.53
2023-04-17T10:49:50.533Z,7.30
2023-04-17T10:52:51.196Z,8.17
2023-04-17T10:55:22.086Z,7.03
2023-04-17T10:58:00.638Z,7.40
2023-04-17T11:00:33.591Z,6.30
2023-04-17T11:03:03.495Z,7.53
2023-04-17T11:05:32.235Z,10.00
2023-04-17T11:07:59.949Z,7.33
2023-04-17T11:10:27.661Z,10.57
2023-04-17T11:12:56.710Z,7.80
2023-04-17T11:15:33.133Z,7.23
2023-04-17T11:18:03.053Z,8.93
2023-04-17T11:20:33.207Z,8.63
2023-04-17T11:23:05.056Z,11.17
2023-04-17T11:25:35.004Z,8.17
2023-04-17T11:28:04.133Z,5.70
2023-04-17T11:30:33.123Z,7.27
2023-04-17T11:33:02.959Z,8.10
2023-04-17T11:35:32.457Z,9.43
2023-04-17T11:38:14.290Z,5.50
2023-04-17T11:40:46.054Z,6.03
2023-04-17T11:43:14.228Z,5.93
2023-04-17T11:45:43.699Z,8.30
2023-04-17T11:48:13.850Z,9.70
2023-04-17T11:50:42.449Z,6.03
2023-04-17T11:53:10.018Z,4.50
2023-04-17T11:55:37.470Z,4.53
2023-04-17T11:58:07.684Z,3.60
2023-04-17T12:00:37.456Z,3.60
2023-04-17T12:03:36.027Z,10.27
2023-04-17T12:06:06.257Z,3.60
2023-04-17T12:08:43.479Z,6.30
2023-04-17T12:11:18.295Z,4.67
2023-04-17T12:13:46.040Z,8.50
2023-04-17T12:16:13.502Z,8.60
2023-04-17T12:18:42.358Z,4.43
2023-04-17T12:21:09.799Z,4.03
2023-04-17T12:23:37.274Z,6.70
2023-04-17T12:26:04.868Z,5.30
2023-04-17T12:28:32.371Z,3.60
2023-04-17T12:30:59.803Z,4.23
2023-04-17T12:33:27.243Z,4.50
2023-04-17T12:35:56.053Z,4.20
2023-04-17T12:38:24.147Z,4.57
2023-04-17T12:40:51.588Z,4.57
2023-04-17T12:43:19.084Z,3.90
2023-04-17T12:45:46.956Z,3.70
2023-04-17T12:48:15.310Z,4.17
2023-04-17T12:50:43.766Z,4.00
2023-04-17T12:53:13.895Z,3.50
2023-04-17T12:55:43.489Z,3.67
2023-04-17T12:58:12.044Z,7.13
2023-04-17T13:00:40.803Z,3.40
2023-04-17T13:03:08.600Z,3.40
2023-04-17T13:05:36.558Z,4.40
2023-04-17T13:08:04.019Z,5.83
2023-04-17T13:10:34.192Z,3.43
2023-04-17T13:13:02.193Z,3.97
2023-04-17T13:15:29.673Z,4.00
2023-04-17T13:17:57.166Z,3.20
2023-04-17T13:20:24.748Z,4.87
2023-04-17T13:22:52.223Z,4.07
2023-04-17T13:25:19.716Z,4.73
2023-04-17T13:27:48.581Z,4.90
2023-04-17T13:30:16.309Z,6.10
2023-04-17T13:32:43.904Z,3.20
2023-04-17T13:35:13.317Z,4.97
2023-04-17T13:37:41.208Z,7.20
2023-04-17T13:40:10.652Z,5.93
2023-04-17T13:42:38.242Z,9.07
2023-04-17T13:45:08.677Z,5.57
2023-04-17T13:47:36.240Z,3.97
2023-04-17T13:50:03.908Z,3.70
2023-04-17T13:52:31.355Z,6.63
2023-04-17T13:54:58.790Z,4.87
2023-04-17T13:57:26.253Z,5.20
2023-04-17T13:59:53.760Z,5.10
2023-04-17T14:02:22.862Z,7.23
2023-04-17T14:04:50.796Z,8.90
2023-04-17T14:07:18.310Z,3.33
2023-04-17T14:09:45.780Z,3.97
2023-04-17T14:12:16.667Z,3.50
2023-04-17T14:14:44.146Z,3.13
2023-04-17T14:17:11.631Z,4.00
2023-04-17T14:19:40.418Z,5.00
2023-04-17T14:22:07.876Z,4.33
2023-04-17T14:24:35.329Z,4.20
2023-04-17T14:27:02.939Z,3.20
2023-04-17T14:29:30.643Z,5.10
2023-04-17T14:31:58.206Z,3.07
2023-04-17T14:34:25.987Z,5.53
2023-04-17T14:36:57.448Z,4.40
2023-04-17T14:39:25.541Z,4.70
2023-04-17T14:41:53.264Z,2.83
2023-04-17T14:44:21.278Z,4.07
2023-04-17T14:46:48.943Z,5.73
2023-04-17T14:49:16.591Z,4.33
2023-04-17T14:51:44.084Z,2.97
2023-04-17T14:54:12.866Z,4.03
2023-04-17T14:56:40.604Z,4.03
2023-04-17T14:59:08.065Z,3.70
2023-04-17T15:01:35.599Z,3.83
2023-04-17T15:04:03.749Z,5.70
2023-04-17T15:06:31.413Z,5.20
2023-04-17T15:08:59.272Z,4.37
2023-04-17T15:11:28.096Z,5.07
2023-04-17T15:13:55.533Z,5.40
2023-04-17T15:16:23.033Z,3.47
2023-04-17T15:18:51.074Z,2.97
2023-04-17T15:21:18.675Z,5.00
2023-04-17T15:23:46.162Z,4.87
2023-04-17T15:26:14.139Z,3.33
2023-04-17T15:28:42.970Z,4.70
2023-04-17T15:31:10.481Z,10.10
2023-04-17T15:33:38.427Z,6.20
2023-04-17T15:36:05.978Z,6.53
2023-04-17T15:38:33.442Z,7.17
2023-04-17T15:41:00.990Z,4.77
2023-04-17T15:43:28.494Z,6.07
2023-04-17T15:45:58.897Z,7.93
2023-04-17T15:48:27.472Z,11.63
2023-04-17T15:50:55.071Z,6.00
2023-04-17T15:53:22.647Z,6.47
2023-04-17T15:55:50.139Z,5.33
2023-04-17T15:58:17.616Z,4.43
2023-04-17T16:00:45.183Z,3.80
2023-04-17T16:03:14.514Z,5.40
2023-04-17T16:05:42.243Z,5.57
2023-04-17T16:08:09.716Z,4.27
2023-04-17T16:10:37.614Z,4.30
2023-04-17T16:13:05.118Z,5.87
2023-04-17T16:15:32.577Z,4.30
2023-04-17T16:18:00.150Z,4.30
2023-04-17T16:20:29.071Z,5.60
2023-04-17T16:22:56.504Z,4.73
2023-04-17T16:25:24.060Z,5.60
2023-04-17T16:27:51.542Z,4.37
2023-04-17T16:30:19.119Z,4.50
2023-04-17T16:32:48.615Z,4.50
2023-04-17T16:35:16.166Z,4.57
2023-04-17T16:37:44.971Z,4.10
2023-04-17T16:40:12.966Z,4.87
2023-04-17T16:42:41.722Z,5.77
2023-04-17T16:45:09.825Z,5.00
2023-04-17T16:47:38.709Z,4.53
2023-04-17T16:50:09.808Z,4.40
2023-04-17T16:52:40.069Z,5.00
2023-04-17T16:55:10.079Z,4.80
2023-04-17T16:57:38.217Z,8.37
2023-04-17T17:00:07.611Z,4.57
2023-04-17T17:02:35.447Z,4.00
2023-04-17T17:05:02.994Z,4.00
2023-04-17T17:07:30.611Z,6.10
2023-04-17T17:09:58.130Z,5.10
2023-04-17T17:12:27.172Z,5.20
2023-04-17T17:14:54.892Z,5.97
2023-04-17T17:17:22.487Z,3.40
2023-04-17T17:19:50.046Z,4.47
2023-04-17T17:22:17.520Z,10.57
2023-04-17T17:24:44.956Z,6.60
2023-04-17T17:27:12.929Z,5.20
2023-04-17T17:29:41.870Z,4.70
2023-04-17T17:32:09.836Z,5.03
2023-04-17T17:34:37.323Z,4.67
2023-04-17T17:37:04.806Z,5.63
2023-04-17T17:39:32.259Z,5.03
2023-04-17T17:42:02.818Z,7.30
2023-04-17T17:44:30.352Z,5.13
2023-04-17T17:46:59.156Z,4.83
2023-04-17T17:49:26.703Z,8.07
2023-04-17T17:51:54.209Z,4.87
2023-04-17T17:54:59.857Z,5.63
2023-04-17T17:57:33.002Z,6.80
2023-04-17T18:00:11.200Z,8.40
2023-04-17T18:02:40.226Z,7.40
2023-04-17T18:05:08.225Z,6.53
2023-04-17T18:07:35.817Z,5.03
2023-04-17T18:10:03.528Z,6.00
2023-04-17T18:12:31.033Z,6.67
2023-04-17T18:15:00.987Z,6.13
2023-04-17T18:17:28.550Z,6.00
2023-04-17T18:19:57.465Z,4.23
2023-04-17T18:22:25.010Z,9.47
2023-04-17T18:24:53.915Z,5.83
2023-04-17T18:27:21.657Z,11.70
2023-04-17T18:29:49.463Z,9.03
2023-04-17T18:32:17.037Z,7.03
2023-04-17T18:34:48.907Z,6.93
2023-04-17T18:37:18.332Z,7.73
2023-04-17T18:39:45.996Z,7.33
2023-04-17T18:42:13.573Z,6.60
2023-04-17T18:44:41.728Z,6.67
2023-04-17T18:47:09.254Z,6.57
2023-04-17T18:49:36.917Z,8.50
2023-04-17T18:52:05.436Z,6.37
2023-04-17T18:54:34.337Z,13.80
2023-04-17T18:57:01.832Z,9.87
2023-04-17T18:59:30.113Z,15.03
2023-04-17T19:01:57.726Z,11.40
2023-04-17T19:04:25.942Z,8.90
2023-04-17T19:06:53.501Z,7.70
2023-04-17T19:09:21.104Z,7.03
2023-04-17T19:11:50.236Z,6.80
2023-04-17T19:14:17.720Z,9.77
2023-04-17T19:16:47.137Z,10.07
2023-04-17T19:19:15.480Z,9.43
2023-04-17T19:21:43.158Z,8.67
2023-04-17T19:24:10.768Z,8.60
2023-04-17T19:26:38.785Z,8.90
2023-04-17T19:29:07.874Z,6.00
2023-04-17T19:31:35.543Z,7.80
2023-04-17T19:34:03.056Z,7.63
2023-04-17T19:36:30.525Z,5.97
2023-04-17T19:38:59.732Z,8.07
2023-04-17T19:41:28.613Z,9.43
2023-04-17T19:43:57.319Z,10.00
2023-04-17T19:46:27.391Z,13.23
2023-04-17T19:48:55.059Z,9.53
2023-04-17T19:51:22.653Z,8.50
2023-04-17T19:53:50.268Z,6.13
2023-04-17T19:56:17.759Z,6.40
2023-04-17T19:58:45.255Z,11.23
2023-04-17T20:01:12.789Z,7.37
2023-04-17T20:03:43.532Z,10.10
2023-04-17T20:06:11.190Z,6.67
2023-04-17T20:08:38.652Z,8.97
2023-04-17T20:11:11.742Z,6.23
2023-04-17T20:13:39.246Z,8.30
2023-04-17T20:16:07.280Z,6.10
2023-04-17T20:18:35.207Z,8.47
2023-04-17T20:21:05.747Z,6.97
2023-04-17T20:23:33.503Z,7.97
2023-04-17T20:26:00.943Z,7.20
2023-04-17T20:28:29.045Z,9.17
2023-04-17T20:30:56.745Z,6.07
2023-04-17T20:33:24.338Z,8.40
2023-04-17T20:35:51.822Z,8.00
2023-04-17T20:38:20.675Z,7.53
2023-04-17T20:40:48.196Z,8.03
2023-04-17T20:43:16.797Z,7.33
2023-04-17T20:45:44.576Z,5.23
2023-04-17T20:48:12.141Z,6.20
2023-04-17T20:50:39.668Z,8.70
2023-04-17T20:53:07.152Z,7.23
2023-04-17T20:55:37.288Z,6.47
2023-04-17T20:58:04.774Z,10.07
2023-04-17T21:00:32.394Z,8.20
2023-04-17T21:02:59.918Z,6.80
2023-04-17T21:05:27.520Z,6.73
2023-04-17T21:07:57.518Z,9.93
2023-04-17T21:10:25.028Z,7.23
2023-04-17T21:12:53.842Z,7.10
2023-04-17T21:15:21.443Z,8.10
2023-04-17T21:17:48.879Z,9.63
2023-04-17T21:20:16.412Z,11.40
2023-04-17T21:22:43.862Z,11.53
2023-04-17T21:25:11.312Z,7.90
2023-04-17T21:27:38.752Z,6.77
2023-04-17T21:30:10.509Z,7.27
2023-04-17T21:32:38.013Z,9.93
2023-04-17T21:35:06.224Z,8.63
2023-04-17T21:37:33.682Z,6.43
2023-04-17T21:40:01.153Z,7.10
2023-04-17T21:42:28.633Z,8.70
2023-04-17T21:44:56.190Z,8.00
2023-04-17T21:47:24.993Z,6.87
2023-04-17T21:49:52.493Z,8.53
2023-04-17T21:52:19.979Z,7.17
2023-04-17T21:54:47.447Z,7.60
2023-04-17T21:57:14.927Z,8.57
2023-04-17T21:59:42.365Z,7.80
2023-04-17T22:02:09.872Z,10.63
2023-04-17T22:04:38.686Z,7.60
2023-04-17T22:07:08.451Z,6.87
2023-04-17T22:09:35.935Z,8.57
2023-04-17T22:12:11.471Z,7.23
2023-04-17T22:14:38.957Z,8.80
2023-04-17T22:17:06.435Z,10.37
2023-04-17T22:19:33.921Z,8.00
2023-04-17T22:22:02.692Z,7.40
2023-04-17T22:24:30.160Z,8.03
2023-04-17T22:26:57.635Z,8.30
2023-04-17T22:29:25.200Z,7.50
2023-04-17T22:31:52.684Z,10.23
2023-04-17T22:34:20.156Z,8.43
2023-04-17T22:36:47.579Z,8.50
2023-04-17T22:39:16.643Z,10.30
2023-04-17T22:41:44.087Z,8.10
2023-04-17T22:44:11.740Z,16.80
2023-04-17T22:46:39.426Z,8.40
2023-04-17T22:49:07.433Z,8.43
2023-04-17T22:51:34.874Z,7.70
2023-04-17T22:54:11.529Z,6.17
2023-04-17T22:56:44.165Z,7.43
2023-04-17T22:59:11.854Z,8.00
2023-04-17T23:01:39.541Z,9.70
2023-04-17T23:04:06.993Z,9.30
2023-04-17T23:06:34.409Z,8.03
2023-04-17T23:09:01.926Z,8.10
2023-04-17T23:11:31.948Z,8.07
2023-04-17T23:14:01.218Z,6.20
2023-04-17T23:16:31.459Z,7.90
2023-04-17T23:18:59.129Z,10.73
2023-04-17T23:21:26.625Z,8.40
2023-04-17T23:23:54.052Z,9.57
2023-04-17T23:26:21.492Z,10.23
2023-04-17T23:28:48.918Z,10.43
2023-04-17T23:31:17.744Z,8.93
2023-04-17T23:33:45.172Z,6.80
2023-04-17T23:36:13.133Z,7.83
2023-04-17T23:38:40.604Z,7.57
2023-04-17T23:41:08.092Z,6.80
2023-04-17T23:43:35.536Z,10.83
2023-04-17T23:46:02.991Z,9.40
2023-04-17T23:48:31.786Z,9.10
2023-04-17T23:50:59.318Z,10.90
2023-04-17T23:53:26.865Z,8.57
2023-04-17T23:55:54.377Z,7.10
2023-04-17T23:58:21.837Z,10.20
